createdAt,value
2023-04-15T00:00:56.176Z,14.85
2023-04-15T00:03:22.860Z,13.73
2023-04-15T00:05:49.441Z,12.98
2023-04-15T00:08:15.674Z,12.93
2023-04-15T00:10:44.250Z,11.65
2023-04-15T00:13:10.704Z,11.48
2023-04-15T00:15:37.685Z,10.48
2023-04-15T00:18:04.381Z,9.48
2023-04-15T00:20:30.658Z,10.05
2023-04-15T00:22:58.003Z,8.77
2023-04-15T00:25:24.402Z,9.02
2023-04-15T00:27:50.630Z,7.88
2023-04-15T00:30:17.063Z,7.43
2023-04-15T00:32:43.431Z,7.15
2023-04-15T00:35:09.712Z,6.35
2023-04-15T00:37:36.776Z,5.82
2023-04-15T00:40:05.850Z,6.88
2023-04-15T00:42:32.305Z,5.85
2023-04-15T00:44:58.864Z,6.13
2023-04-15T00:47:25.514Z,5.65
2023-04-15T00:49:52.029Z,5.97
2023-04-15T00:52:18.297Z,5.80
2023-04-15T00:54:44.590Z,5.07
2023-04-15T00:57:10.957Z,4.75
2023-04-15T00:59:37.285Z,5.18
2023-04-15T01:02:03.724Z,4.70
2023-04-15T01:04:30.690Z,4.90
2023-04-15T01:06:57.360Z,4.63
2023-04-15T01:09:23.680Z,4.38
2023-04-15T01:11:50.121Z,4.82
2023-04-15T01:14:16.603Z,4.82
2023-04-15T01:16:42.880Z,4.43
2023-04-15T01:19:10.563Z,4.40
2023-04-15T01:21:39.798Z,4.80
2023-04-15T01:24:10.269Z,4.90
2023-04-15T01:26:40.487Z,5.10
2023-04-15T01:29:07.212Z,5.13
2023-04-15T01:31:33.545Z,4.95
2023-04-15T01:33:59.816Z,4.45
2023-04-15T01:36:26.113Z,4.18
2023-04-15T01:38:52.460Z,5.13
2023-04-15T01:41:22.214Z,5.20
2023-04-15T01:43:48.484Z,4.68
2023-04-15T01:46:14.765Z,4.88
2023-04-15T01:48:41.176Z,4.90
2023-04-15T01:51:08.005Z,4.32
2023-04-15T01:53:34.304Z,5.13
2023-04-15T01:56:00.565Z,4.65
2023-04-15T01:58:27.151Z,4.25
2023-04-15T02:00:53.631Z,5.40
2023-04-15T02:03:20.083Z,5.10
2023-04-15T02:05:46.469Z,4.78
2023-04-15T02:08:13.305Z,5.03
2023-04-15T02:10:39.597Z,4.82
2023-04-15T02:13:05.890Z,5.22
2023-04-15T02:15:33.259Z,5.20
2023-04-15T02:18:00.937Z,5.20
2023-04-15T02:20:27.352Z,4.85
2023-04-15T02:22:53.622Z,5.50
2023-04-15T02:25:20.487Z,4.45
2023-04-15T02:27:46.817Z,5.15
2023-04-15T02:30:13.597Z,4.78
2023-04-15T02:32:40.504Z,4.95
2023-04-15T02:35:07.765Z,4.80
2023-04-15T02:37:40.420Z,4.13
2023-04-15T02:40:07.964Z,4.70
2023-04-15T02:42:34.238Z,4.25
2023-04-15T02:45:00.690Z,4.80
2023-04-15T02:47:27.069Z,4.13
2023-04-15T02:49:53.329Z,5.15
2023-04-15T02:52:19.624Z,3.90
2023-04-15T02:54:45.894Z,4.80
2023-04-15T02:57:12.927Z,4.70
2023-04-15T02:59:39.389Z,4.88
2023-04-15T03:02:07.778Z,4.97
2023-04-15T03:04:34.250Z,5.20
2023-04-15T03:07:01.716Z,4.88
2023-04-15T03:09:28.022Z,5.03
2023-04-15T03:11:54.798Z,5.05
2023-04-15T03:14:21.218Z,4.75
2023-04-15T03:16:47.445Z,5.05
2023-04-15T03:19:13.816Z,4.63
2023-04-15T03:21:40.100Z,5.50
2023-04-15T03:24:07.006Z,4.85
2023-04-15T03:26:33.352Z,4.80
2023-04-15T03:28:59.900Z,4.90
2023-04-15T03:31:26.512Z,5.35
2023-04-15T03:33:52.812Z,5.45
2023-04-15T03:36:19.129Z,4.90
2023-04-15T03:38:45.709Z,5.47
2023-04-15T03:41:12.074Z,4.68
2023-04-15T03:43:38.386Z,4.82
2023-04-15T03:46:04.751Z,4.80
2023-04-15T03:48:31.327Z,4.47
2023-04-15T03:50:57.614Z,4.72
2023-04-15T03:53:23.917Z,5.05
2023-04-15T03:55:50.218Z,5.10
2023-04-15T03:58:16.521Z,4.57
2023-04-15T04:00:43.112Z,4.53
2023-04-15T04:03:09.671Z,5.00
2023-04-15T04:05:41.316Z,4.95
2023-04-15T04:08:07.670Z,4.80
2023-04-15T04:10:34.018Z,5.07
2023-04-15T04:13:00.621Z,4.88
2023-04-15T04:15:27.128Z,3.97
2023-04-15T04:17:53.610Z,4.35
2023-04-15T04:20:20.010Z,3.22
2023-04-15T04:22:46.632Z,3.25
2023-04-15T04:25:12.873Z,2.83
2023-04-15T04:27:39.359Z,3.80
2023-04-15T04:30:06.786Z,2.33
2023-04-15T04:32:33.084Z,3.15
2023-04-15T04:34:59.400Z,2.80
2023-04-15T04:37:25.715Z,2.83
2023-04-15T04:39:52.018Z,2.92
2023-04-15T04:42:18.345Z,3.05
2023-04-15T04:44:44.753Z,2.88
2023-04-15T04:47:11.469Z,2.90
2023-04-15T04:49:37.761Z,2.70
2023-04-15T04:52:04.046Z,2.35
2023-04-15T04:54:31.809Z,3.50
2023-04-15T04:56:58.112Z,3.58
2023-04-15T04:59:24.614Z,2.78
2023-04-15T05:01:51.304Z,2.67
2023-04-15T05:04:17.724Z,3.63
2023-04-15T05:06:44.015Z,2.38
2023-04-15T05:09:10.508Z,2.85
2023-04-15T05:11:36.934Z,3.38
2023-04-15T05:14:03.278Z,3.50
2023-04-15T05:16:29.557Z,3.35
2023-04-15T05:18:55.867Z,3.40
2023-04-15T05:21:22.253Z,3.22
2023-04-15T05:23:48.536Z,2.90
2023-04-15T05:26:14.807Z,3.72
2023-04-15T05:28:41.310Z,3.17
2023-04-15T05:31:07.838Z,3.85
2023-04-15T05:33:34.188Z,2.80
2023-04-15T05:36:00.724Z,3.35
2023-04-15T05:38:27.112Z,2.78
2023-04-15T05:40:53.361Z,3.92
2023-04-15T05:43:19.645Z,3.05
2023-04-15T05:45:45.902Z,3.83
2023-04-15T05:48:12.219Z,3.30
2023-04-15T05:50:40.884Z,3.47
2023-04-15T05:53:07.159Z,3.33
2023-04-15T05:55:33.505Z,3.42
2023-04-15T05:57:59.869Z,3.55
2023-04-15T06:00:26.136Z,3.38
2023-04-15T06:02:53.200Z,3.25
2023-04-15T06:05:19.977Z,3.55
2023-04-15T06:07:48.295Z,3.30
2023-04-15T06:10:14.933Z,3.10
2023-04-15T06:12:41.281Z,4.03
2023-04-15T06:15:09.996Z,3.63
2023-04-15T06:17:36.877Z,3.60
2023-04-15T06:20:03.368Z,3.45
2023-04-15T06:22:29.693Z,4.03
2023-04-15T06:24:56.058Z,3.85
2023-04-15T06:27:23.083Z,3.17
2023-04-15T06:29:49.452Z,3.90
2023-04-15T06:32:16.212Z,3.40
2023-04-15T06:34:42.500Z,3.35
2023-04-15T06:37:11.046Z,3.53
2023-04-15T06:39:37.713Z,3.17
2023-04-15T06:42:04.520Z,3.25
2023-04-15T06:44:32.593Z,4.20
2023-04-15T06:46:59.985Z,3.78
2023-04-15T06:49:26.668Z,3.83
2023-04-15T06:51:52.910Z,3.95
2023-04-15T06:54:19.332Z,3.40
2023-04-15T06:56:45.703Z,3.70
2023-04-15T06:59:12.769Z,3.67
2023-04-15T07:01:39.096Z,3.58
2023-04-15T07:04:05.430Z,2.95
2023-04-15T07:06:32.725Z,3.47
2023-04-15T07:08:59.518Z,3.92
2023-04-15T07:11:26.350Z,2.78
2023-04-15T07:13:52.612Z,3.35
2023-04-15T07:16:19.233Z,3.47
2023-04-15T07:18:45.585Z,3.67
2023-04-15T07:21:11.980Z,3.65
2023-04-15T07:23:38.295Z,4.10
2023-04-15T07:26:04.745Z,3.38
2023-04-15T07:28:31.533Z,3.63
2023-04-15T07:30:57.891Z,5.15
2023-04-15T07:33:24.257Z,4.38
2023-04-15T07:35:50.582Z,2.88
2023-04-15T07:38:16.921Z,3.72
2023-04-15T07:40:43.219Z,3.95
2023-04-15T07:43:09.975Z,4.00
2023-04-15T07:45:36.376Z,4.03
2023-04-15T07:48:02.770Z,3.28
2023-04-15T07:50:29.093Z,3.97
2023-04-15T07:52:55.910Z,3.92
2023-04-15T07:55:23.403Z,3.65
2023-04-15T07:57:50.465Z,3.75
2023-04-15T08:00:16.905Z,2.45
2023-04-15T08:02:43.522Z,3.65
2023-04-15T08:05:10.668Z,3.33
2023-04-15T08:07:38.251Z,3.42
2023-04-15T08:10:04.814Z,3.05
2023-04-15T08:12:31.511Z,2.20
2023-04-15T08:14:57.818Z,2.63
2023-04-15T08:17:24.376Z,2.53
2023-04-15T08:19:50.703Z,3.17
2023-04-15T08:22:18.517Z,2.63
2023-04-15T08:24:46.049Z,2.55
2023-04-15T08:27:12.637Z,2.17
2023-04-15T08:29:38.977Z,1.73
2023-04-15T08:32:06.223Z,2.55
2023-04-15T08:34:32.601Z,2.70
2023-04-15T08:36:59.000Z,2.03
2023-04-15T08:39:25.276Z,1.70
2023-04-15T08:41:58.907Z,1.30
2023-04-15T08:44:26.105Z,1.90
2023-04-15T08:46:53.271Z,1.40
2023-04-15T08:49:21.358Z,1.70
2023-04-15T08:51:47.848Z,1.33
2023-04-15T08:54:14.296Z,1.35
2023-04-15T08:56:40.862Z,1.40
2023-04-15T08:59:07.419Z,1.30
2023-04-15T09:01:34.158Z,1.30
2023-04-15T09:04:01.214Z,1.80
2023-04-15T09:06:27.592Z,1.83
2023-04-15T09:08:53.893Z,1.08
2023-04-15T09:11:21.988Z,1.80
2023-04-15T09:13:48.867Z,1.60
2023-04-15T09:16:15.572Z,2.08
2023-04-15T09:18:42.000Z,1.67
2023-04-15T09:21:11.198Z,2.20
2023-04-15T09:23:38.171Z,2.28
2023-04-15T09:26:04.964Z,1.95
2023-04-15T09:28:31.463Z,2.03
2023-04-15T09:31:01.227Z,2.47
2023-04-15T09:33:28.707Z,1.90
2023-04-15T09:36:02.181Z,2.28
2023-04-15T09:38:28.604Z,2.42
2023-04-15T09:40:55.264Z,1.60
2023-04-15T09:43:22.047Z,2.03
2023-04-15T09:45:52.301Z,1.60
2023-04-15T09:48:22.731Z,1.33
2023-04-15T09:50:50.034Z,1.73
2023-04-15T09:53:17.830Z,2.40
2023-04-15T09:55:50.274Z,2.55
2023-04-15T09:58:20.311Z,1.95
2023-04-15T10:00:50.379Z,1.40
2023-04-15T10:03:19.608Z,2.00
2023-04-15T10:05:47.747Z,1.95
2023-04-15T10:08:14.988Z,1.88
2023-04-15T10:10:41.351Z,1.30
2023-04-15T10:13:08.273Z,1.90
2023-04-15T10:15:34.781Z,1.58
2023-04-15T10:18:01.248Z,1.52
2023-04-15T10:20:29.009Z,1.42
2023-04-15T10:22:55.348Z,1.75
2023-04-15T10:25:22.455Z,1.17
2023-04-15T10:27:52.074Z,1.15
2023-04-15T10:30:18.625Z,1.30
2023-04-15T10:32:45.875Z,0.80
2023-04-15T10:35:12.656Z,1.50
2023-04-15T10:37:39.021Z,1.63
2023-04-15T10:40:28.469Z,1.00
2023-04-15T10:42:55.912Z,1.77
2023-04-15T10:45:22.373Z,1.33
2023-04-15T10:47:52.500Z,1.30
2023-04-15T10:50:19.111Z,1.38
2023-04-15T10:52:45.515Z,1.70
2023-04-15T10:55:19.451Z,1.58
2023-04-15T10:57:46.173Z,1.13
2023-04-15T11:00:13.731Z,1.27
2023-04-15T11:02:53.999Z,1.65
2023-04-15T11:05:21.377Z,1.67
2023-04-15T11:07:48.980Z,1.65
2023-04-15T11:10:18.460Z,2.78
2023-04-15T11:12:45.545Z,1.65
2023-04-15T11:15:30.420Z,1.25
2023-04-15T11:17:57.622Z,1.58
2023-04-15T11:20:24.072Z,1.23
2023-04-15T11:22:51.020Z,1.60
2023-04-15T11:25:23.555Z,2.05
2023-04-15T11:27:50.786Z,0.88
2023-04-15T11:30:21.983Z,1.20
2023-04-15T11:32:51.757Z,0.88
2023-04-15T11:35:18.307Z,1.50
2023-04-15T11:37:45.257Z,0.90
2023-04-15T11:40:11.915Z,0.80
2023-04-15T11:42:49.225Z,0.77
2023-04-15T11:45:16.332Z,0.93
2023-04-15T11:47:42.938Z,1.60
2023-04-15T11:50:18.871Z,1.30
2023-04-15T11:52:57.900Z,0.80
2023-04-15T11:55:24.715Z,1.02
2023-04-15T11:57:51.441Z,1.02
2023-04-15T12:00:20.271Z,0.95
2023-04-15T12:02:47.339Z,1.08
2023-04-15T12:05:13.740Z,1.10
2023-04-15T12:07:59.347Z,1.00
2023-04-15T12:10:26.014Z,1.55
2023-04-15T12:12:53.088Z,1.35
2023-04-15T12:15:22.274Z,1.10
2023-04-15T12:17:51.658Z,1.27
2023-04-15T12:20:25.181Z,0.82
2023-04-15T12:22:51.482Z,1.15
2023-04-15T12:25:17.855Z,0.77
2023-04-15T12:27:50.700Z,0.60
2023-04-15T12:30:17.069Z,0.95
2023-04-15T12:32:44.069Z,0.80
2023-04-15T12:35:10.418Z,0.60
2023-04-15T12:37:36.661Z,0.93
2023-04-15T12:40:03.020Z,1.45
2023-04-15T12:42:29.320Z,0.70
2023-04-15T12:44:55.634Z,0.40
2023-04-15T12:47:21.961Z,0.52
2023-04-15T12:49:49.546Z,0.90
2023-04-15T12:52:16.518Z,0.40
2023-04-15T12:54:42.791Z,1.33
2023-04-15T12:57:09.139Z,0.80
2023-04-15T12:59:36.140Z,0.90
2023-04-15T13:02:03.111Z,0.68
2023-04-15T13:04:30.926Z,0.52
2023-04-15T13:06:57.694Z,0.82
2023-04-15T13:09:23.952Z,0.75
2023-04-15T13:11:50.915Z,0.80
2023-04-15T13:14:17.195Z,0.90
2023-04-15T13:16:43.541Z,0.75
2023-04-15T13:19:09.839Z,0.80
2023-04-15T13:21:36.693Z,0.80
2023-04-15T13:24:03.537Z,0.77
2023-04-15T13:26:31.297Z,0.52
2023-04-15T13:28:57.664Z,0.90
2023-04-15T13:31:23.998Z,0.80
2023-04-15T13:33:50.322Z,0.50
2023-04-15T13:36:16.734Z,0.90
2023-04-15T13:38:42.997Z,1.17
2023-04-15T13:41:09.343Z,0.65
2023-04-15T13:43:35.630Z,0.73
2023-04-15T13:46:02.297Z,0.57
2023-04-15T13:48:28.790Z,0.73
2023-04-15T13:50:55.123Z,0.85
2023-04-15T13:53:21.432Z,0.60
2023-04-15T13:56:00.523Z,0.82
2023-04-15T13:58:26.833Z,1.10
2023-04-15T14:00:53.182Z,0.50
2023-04-15T14:03:19.492Z,0.73
2023-04-15T14:05:45.919Z,0.60
2023-04-15T14:08:12.214Z,0.80
2023-04-15T14:10:38.641Z,0.75
2023-04-15T14:13:04.873Z,0.38
2023-04-15T14:15:31.193Z,0.55
2023-04-15T14:17:57.633Z,0.77
2023-04-15T14:20:24.028Z,0.30
2023-04-15T14:22:50.561Z,0.63
2023-04-15T14:25:30.528Z,0.30
2023-04-15T14:27:59.763Z,0.55
2023-04-15T14:30:26.246Z,0.50
2023-04-15T14:32:52.588Z,0.85
2023-04-15T14:35:18.975Z,0.93
2023-04-15T14:37:45.405Z,0.63
2023-04-15T14:40:11.709Z,1.20
2023-04-15T14:42:38.016Z,1.08
2023-04-15T14:45:04.559Z,0.90
2023-04-15T14:47:31.286Z,1.73
2023-04-15T14:49:57.645Z,1.83
2023-04-15T14:52:23.915Z,1.73
2023-04-15T14:54:50.379Z,1.30
2023-04-15T14:57:16.822Z,0.50
2023-04-15T14:59:43.104Z,1.38
2023-04-15T15:02:09.455Z,1.50
2023-04-15T15:04:36.290Z,0.82
2023-04-15T15:07:02.629Z,1.33
2023-04-15T15:09:29.038Z,1.00
2023-04-15T15:11:56.865Z,0.77
2023-04-15T15:14:23.161Z,0.70
2023-04-15T15:16:49.868Z,1.48
2023-04-15T15:19:16.819Z,0.80
2023-04-15T15:21:43.154Z,1.15
2023-04-15T15:24:09.382Z,0.80
2023-04-15T15:26:36.082Z,0.77
2023-04-15T15:29:02.557Z,0.50
2023-04-15T15:31:29.037Z,0.52
2023-04-15T15:33:55.416Z,1.50
2023-04-15T15:36:21.697Z,0.80
2023-04-15T15:38:48.002Z,0.20
2023-04-15T15:41:15.478Z,1.05
2023-04-15T15:43:41.740Z,0.90
2023-04-15T15:46:08.225Z,0.70
2023-04-15T15:48:34.557Z,0.77
2023-04-15T15:51:01.168Z,1.17
2023-04-15T15:53:27.467Z,1.05
2023-04-15T15:55:54.125Z,0.70
2023-04-15T15:58:20.609Z,0.80
2023-04-15T16:00:47.170Z,2.05
2023-04-15T16:03:13.543Z,1.00
2023-04-15T16:05:39.966Z,0.93
2023-04-15T16:08:06.300Z,0.85
2023-04-15T16:10:32.629Z,1.00
2023-04-15T16:12:59.049Z,0.60
2023-04-15T16:15:25.981Z,1.10
2023-04-15T16:17:52.320Z,0.82
2023-04-15T16:20:18.708Z,1.23
2023-04-15T16:22:45.231Z,0.70
2023-04-15T16:25:11.669Z,1.10
2023-04-15T16:27:50.345Z,0.95
2023-04-15T16:30:22.138Z,1.08
2023-04-15T16:32:48.632Z,0.98
2023-04-15T16:35:16.723Z,1.25
2023-04-15T16:37:42.958Z,1.15
2023-04-15T16:40:09.587Z,0.68
2023-04-15T16:42:36.679Z,0.73
2023-04-15T16:45:02.963Z,0.45
2023-04-15T16:47:29.308Z,0.60
2023-04-15T16:49:55.703Z,0.20
2023-04-15T16:52:22.035Z,0.43
2023-04-15T16:54:48.273Z,0.70
2023-04-15T16:57:14.605Z,1.20
2023-04-15T16:59:40.884Z,1.02
2023-04-15T17:02:10.379Z,0.82
2023-04-15T17:04:36.936Z,0.57
2023-04-15T17:07:03.985Z,0.70
2023-04-15T17:09:30.455Z,0.63
2023-04-15T17:11:57.507Z,0.57
2023-04-15T17:14:23.727Z,2.17
2023-04-15T17:16:50.128Z,0.38
2023-04-15T17:19:16.387Z,0.75
2023-04-15T17:21:42.648Z,0.93
2023-04-15T17:24:08.954Z,0.40
2023-04-15T17:26:35.325Z,0.82
2023-04-15T17:29:01.568Z,1.83
2023-04-15T17:31:29.533Z,1.10
2023-04-15T17:34:05.183Z,0.73
2023-04-15T17:36:35.612Z,0.47
2023-04-15T17:39:01.870Z,0.40
2023-04-15T17:41:28.226Z,0.68
2023-04-15T17:43:54.493Z,0.75
2023-04-15T17:46:21.004Z,0.80
2023-04-15T17:48:47.740Z,0.70
2023-04-15T17:51:14.230Z,0.80
2023-04-15T17:53:40.621Z,1.27
2023-04-15T17:56:06.916Z,0.40
2023-04-15T17:58:33.138Z,0.40
2023-04-15T18:00:59.381Z,0.45
2023-04-15T18:03:26.362Z,0.50
2023-04-15T18:05:52.983Z,0.88
2023-04-15T18:08:19.281Z,0.63
2023-04-15T18:10:45.608Z,0.90
2023-04-15T18:13:11.923Z,0.82
2023-04-15T18:15:38.340Z,1.20
2023-04-15T18:18:04.630Z,1.40
2023-04-15T18:20:31.260Z,1.80
2023-04-15T18:22:57.618Z,1.02
2023-04-15T18:25:23.972Z,0.25
2023-04-15T18:27:50.368Z,0.52
2023-04-15T18:30:16.612Z,0.88
2023-04-15T18:32:43.299Z,0.68
2023-04-15T18:35:09.700Z,1.15
2023-04-15T18:37:36.011Z,0.70
2023-04-15T18:40:02.321Z,0.55
2023-04-15T18:42:28.692Z,0.73
2023-04-15T18:44:54.984Z,0.80
2023-04-15T18:47:21.373Z,0.93
2023-04-15T18:49:47.689Z,0.80
2023-04-15T18:52:14.079Z,0.55
2023-04-15T18:54:40.369Z,0.90
2023-04-15T18:57:07.847Z,0.60
2023-04-15T18:59:34.378Z,1.27
2023-04-15T19:02:02.016Z,0.70
2023-04-15T19:04:31.186Z,0.85
2023-04-15T19:06:59.201Z,0.80
2023-04-15T19:09:25.984Z,1.17
2023-04-15T19:11:52.440Z,0.82
2023-04-15T19:14:18.968Z,0.50
2023-04-15T19:16:45.411Z,0.40
2023-04-15T19:19:14.471Z,1.55
2023-04-15T19:21:41.239Z,1.15
2023-04-15T19:24:07.538Z,0.98
2023-04-15T19:26:34.120Z,0.82
2023-04-15T19:29:00.444Z,0.82
2023-04-15T19:31:26.771Z,1.20
2023-04-15T19:33:53.223Z,0.80
2023-04-15T19:36:19.575Z,1.13
2023-04-15T19:38:45.909Z,0.85
2023-04-15T19:41:12.331Z,0.88
2023-04-15T19:43:38.603Z,0.63
2023-04-15T19:46:04.944Z,0.60
2023-04-15T19:48:31.285Z,0.98
2023-04-15T19:50:57.667Z,1.02
2023-04-15T19:53:25.547Z,0.50
2023-04-15T19:55:51.874Z,1.00
2023-04-15T19:58:18.141Z,0.88
2023-04-15T20:00:44.518Z,1.60
2023-04-15T20:03:10.901Z,2.25
2023-04-15T20:05:37.424Z,1.45
2023-04-15T20:08:03.753Z,1.83
2023-04-15T20:10:31.452Z,1.05
2023-04-15T20:12:57.764Z,0.85
2023-04-15T20:15:24.319Z,1.30
2023-04-15T20:17:50.745Z,0.93
2023-04-15T20:20:17.210Z,1.17
2023-04-15T20:22:43.599Z,0.68
2023-04-15T20:25:09.915Z,1.08
2023-04-15T20:27:36.251Z,1.27
2023-04-15T20:30:04.686Z,1.10
2023-04-15T20:32:35.317Z,1.30
2023-04-15T20:35:02.525Z,0.47
2023-04-15T20:37:29.944Z,0.70
2023-04-15T20:39:56.238Z,0.85
2023-04-15T20:42:22.714Z,1.05
2023-04-15T20:44:49.035Z,1.17
2023-04-15T20:47:15.494Z,1.13
2023-04-15T20:49:41.845Z,0.88
2023-04-15T20:52:08.569Z,0.55
2023-04-15T20:54:35.228Z,1.13
2023-04-15T20:57:01.868Z,1.00
2023-04-15T20:59:28.515Z,0.95
2023-04-15T21:01:56.845Z,1.23
2023-04-15T21:04:24.388Z,1.45
2023-04-15T21:06:52.035Z,2.00
2023-04-15T21:09:18.737Z,1.00
2023-04-15T21:11:59.779Z,1.83
2023-04-15T21:14:27.226Z,1.42
2023-04-15T21:16:53.609Z,1.48
2023-04-15T21:19:19.893Z,1.50
2023-04-15T21:21:46.225Z,1.30
2023-04-15T21:24:12.465Z,1.63
2023-04-15T21:26:38.750Z,1.85
2023-04-15T21:29:05.508Z,1.60
2023-04-15T21:31:33.100Z,1.70
2023-04-15T21:33:59.416Z,1.17
2023-04-15T21:36:26.798Z,1.20
2023-04-15T21:38:53.101Z,1.20
2023-04-15T21:41:19.471Z,1.23
2023-04-15T21:43:45.872Z,1.33
2023-04-15T21:46:23.412Z,1.90
2023-04-15T21:48:51.524Z,1.58
2023-04-15T21:51:17.783Z,1.42
2023-04-15T21:53:44.149Z,1.40
2023-04-15T21:56:10.805Z,1.10
2023-04-15T21:58:37.025Z,0.85
2023-04-15T22:01:04.065Z,1.80
2023-04-15T22:03:33.490Z,1.00
2023-04-15T22:06:03.337Z,1.52
2023-04-15T22:08:32.119Z,1.15
2023-04-15T22:11:00.111Z,1.30
2023-04-15T22:13:26.408Z,1.10
2023-04-15T22:15:52.714Z,1.25
2023-04-15T22:18:19.017Z,0.80
2023-04-15T22:20:45.481Z,1.40
2023-04-15T22:23:11.768Z,1.52
2023-04-15T22:25:38.178Z,1.30
2023-04-15T22:28:07.852Z,1.30
2023-04-15T22:30:40.555Z,1.27
2023-04-15T22:33:07.711Z,2.00
2023-04-15T22:35:34.428Z,1.23
2023-04-15T22:38:00.746Z,1.10
2023-04-15T22:40:28.718Z,1.40
2023-04-15T22:42:54.952Z,1.80
2023-04-15T22:45:21.231Z,1.70
2023-04-15T22:47:47.538Z,1.67
2023-04-15T22:50:13.919Z,1.52
2023-04-15T22:52:40.259Z,1.73
2023-04-15T22:55:06.907Z,1.50
2023-04-15T22:57:33.220Z,1.70
2023-04-15T22:59:59.477Z,1.73
2023-04-15T23:02:25.887Z,1.73
2023-04-15T23:04:52.292Z,2.03
2023-04-15T23:07:18.656Z,1.30
2023-04-15T23:09:44.931Z,1.00
2023-04-15T23:12:11.291Z,1.17
2023-04-15T23:14:37.552Z,2.10
2023-04-15T23:17:03.793Z,2.10
2023-04-15T23:19:30.051Z,2.10
2023-04-15T23:21:56.445Z,2.20
2023-04-15T23:24:22.914Z,2.03
2023-04-15T23:26:49.216Z,1.35
2023-04-15T23:29:15.632Z,1.73
2023-04-15T23:31:42.024Z,0.88
2023-04-15T23:34:08.339Z,1.30
2023-04-15T23:36:34.657Z,1.42
2023-04-15T23:39:00.926Z,1.95
2023-04-15T23:41:27.258Z,1.75
2023-04-15T23:43:53.583Z,1.60
2023-04-15T23:46:20.020Z,0.95
2023-04-15T23:48:47.865Z,1.77
2023-04-15T23:51:14.183Z,1.92
2023-04-15T23:53:40.571Z,2.22
2023-04-15T23:56:06.981Z,1.25
2023-04-15T23:58:34.483Z,0.80
